Time;durP1;ratioP1;P1;durP2;ratioP2;P2;SDS_P1;SDS_P2;PMS_P1;PMS_P2;Temp;Humidity;BMP_temperature;BMP_pressure;BME280_temperature;BME280_humidity;BME280_pressure;Samples;Min_cycle;Max_cycle;Signal;HPM_P1;HPM_P2
2023/07/26 00:01:14;;;;;;;8.47;6.70;;;;;;;16.97;65.77;96688.34;6228656;28;20317;-58
2023/07/26 00:04:17;;;;;;;1.00;0.90;;;;;;;17.07;64.10;96690.78;6228651;28;20227;-58
2023/07/26 00:07:20;;;;;;;7.93;7.00;;;;;;;17.00;65.52;96675.06;6232733;28;20306;-58
2023/07/26 00:10:24;;;;;;;4.20;1.07;;;;;;;17.22;62.70;96674.22;6232231;28;20322;-58
2023/07/26 00:13:27;;;;;;;2.23;1.00;;;;;;;17.13;63.26;96678.78;6235967;28;20724;-51
2023/07/26 00:16:31;;;;;;;3.40;2.20;;;;;;;17.02;69.15;96682.84;6228771;28;20243;-57
2023/07/26 00:19:35;;;;;;;3.30;2.77;;;;;;;16.89;68.86;96686.38;6228597;28;20231;-56
2023/07/26 00:22:38;;;;;;;2.43;1.33;;;;;;;16.81;67.62;96677.16;6228212;28;20242;-57
2023/07/26 00:25:40;;;;;;;3.10;1.87;;;;;;;16.84;66.43;96681.13;6231029;28;20224;-58
2023/07/26 00:28:43;;;;;;;6.20;4.73;;;;;;;16.77;66.69;96658.16;6231598;28;20235;-57
2023/07/26 00:31:46;;;;;;;1.10;1.00;;;;;;;16.94;66.02;96673.59;6227232;28;20228;-58
2023/07/26 00:34:49;;;;;;;1.47;0.87;;;;;;;16.99;65.86;96672.66;6229196;28;20231;-57
2023/07/26 00:37:51;;;;;;;2.30;1.10;;;;;;;17.08;65.60;96672.72;6226862;28;20326;-58
2023/07/26 00:40:55;;;;;;;5.73;0.77;;;;;;;16.93;67.44;96676.59;6224917;28;20271;-58
2023/07/26 00:43:57;;;;;;;2.10;1.03;;;;;;;16.89;67.92;96675.63;6228895;28;20286;-58
2023/07/26 00:47:02;;;;;;;1.30;0.93;;;;;;;16.76;68.63;96667.31;6214263;28;20223;-58
2023/07/26 00:50:06;;;;;;;1.23;1.10;;;;;;;16.84;68.06;96659.59;6236046;28;20223;-58
2023/07/26 00:53:09;;;;;;;2.17;0.77;;;;;;;16.76;68.02;96661.94;6225991;28;20440;-58
2023/07/26 00:56:14;;;;;;;0.70;0.67;;;;;;;16.72;68.32;96679.00;6233343;28;20232;-58
2023/07/26 00:59:21;;;;;;;8.67;5.70;;;;;;;16.66;70.49;96688.25;6205343;28;20692;-58
2023/07/26 01:02:25;;;;;;;0.60;0.60;;;;;;;16.64;69.45;96685.06;6214774;28;20303;-58
2023/07/26 01:05:39;;;;;;;7.97;5.57;;;;;;;16.56;72.74;96699.25;6212458;28;20318;-58
2023/07/26 01:09:14;;;;;;;2.97;1.30;;;;;;;16.59;69.15;96696.72;6213297;28;20626;-58
2023/07/26 01:12:28;;;;;;;2.67;2.20;;;;;;;16.52;70.12;96683.72;6214155;28;20763;-57
2023/07/26 01:15:36;;;;;;;2.03;1.50;;;;;;;16.48;70.65;96698.06;6214919;28;20231;-58
2023/07/26 01:18:41;;;;;;;4.93;2.20;;;;;;;16.41;72.03;96711.94;6213365;28;20228;-58
2023/07/26 01:21:44;;;;;;;1.00;0.80;;;;;;;16.39;71.86;96724.06;6233792;28;20709;-58
2023/07/26 01:24:48;;;;;;;3.73;3.00;;;;;;;16.37;71.02;96718.22;6214942;28;20267;-56
2023/07/26 01:27:52;;;;;;;0.97;0.87;;;;;;;16.48;68.43;96733.03;6226771;28;20243;-57
2023/07/26 01:30:59;;;;;;;1.23;1.13;;;;;;;16.41;69.65;96721.91;6232665;28;20321;-58
2023/07/26 01:34:09;;;;;;;1.17;1.00;;;;;;;16.47;67.90;96723.38;6228574;28;20226;-57
2023/07/26 01:37:16;;;;;;;1.10;1.00;;;;;;;16.61;67.75;96742.16;6231044;28;20243;-56
2023/07/26 01:40:22;;;;;;;3.00;1.60;;;;;;;16.48;70.05;96749.94;6234134;28;20240;-57
2023/07/26 01:43:27;;;;;;;5.93;3.77;;;;;;;16.43;69.61;96751.94;6215071;28;20254;-57
2023/07/26 01:46:33;;;;;;;2.50;2.10;;;;;;;16.40;70.36;96765.97;6217090;28;20242;-57
2023/07/26 01:49:38;;;;;;;4.70;3.20;;;;;;;16.35;71.27;96766.88;6228296;28;20227;-59
2023/07/26 01:52:43;;;;;;;2.13;1.30;;;;;;;16.31;70.89;96765.13;6224617;28;20289;-56
2023/07/26 01:55:46;;;;;;;0.77;0.77;;;;;;;16.29;68.95;96772.69;6230081;28;20235;-58
2023/07/26 01:58:49;;;;;;;1.73;1.03;;;;;;;16.40;69.67;96764.13;6229368;28;20717;-58
2023/07/26 02:01:54;;;;;;;2.87;1.67;;;;;;;16.36;69.78;96735.47;6234519;28;20228;-58
2023/07/26 02:04:59;;;;;;;2.30;0.90;;;;;;;16.35;70.02;96749.97;6221660;28;20595;-59
2023/07/26 02:08:04;;;;;;;2.17;1.57;;;;;;;16.29;71.04;96754.66;6225587;28;20224;-58
2023/07/26 02:11:11;;;;;;;1.90;1.10;;;;;;;16.06;71.47;96742.25;6211648;28;20362;-57
2023/07/26 02:14:17;;;;;;;1.90;1.30;;;;;;;16.22;75.62;96781.94;6227387;28;20234;-58
2023/07/26 02:17:22;;;;;;;0.80;0.80;;;;;;;16.18;71.49;96786.31;6231224;28;20228;-58
2023/07/26 02:20:28;;;;;;;1.17;0.77;;;;;;;16.17;71.07;96802.75;6228310;28;20235;-58
2023/07/26 02:23:32;;;;;;;1.00;0.80;;;;;;;16.20;70.80;96808.31;6215254;28;20315;-58
2023/07/26 02:26:35;;;;;;;1.03;0.87;;;;;;;16.20;72.12;96807.50;6215323;28;20318;-58
2023/07/26 02:29:39;;;;;;;4.53;1.90;;;;;;;16.16;71.67;96801.16;6240325;28;20319;-57
2023/07/26 02:32:43;;;;;;;1.33;1.00;;;;;;;16.27;70.40;96815.19;6215675;28;20597;-58
2023/07/26 02:35:47;;;;;;;1.97;0.90;;;;;;;16.35;69.56;96806.41;6236274;28;20231;-56
2023/07/26 02:38:52;;;;;;;1.10;1.00;;;;;;;16.20;71.39;96813.69;6224439;28;20224;-55
2023/07/26 02:41:55;;;;;;;1.63;1.00;;;;;;;16.16;70.36;96806.53;6231492;28;20708;-57
2023/07/26 02:44:59;;;;;;;1.33;1.03;;;;;;;16.09;72.46;96804.22;6231220;28;20230;-58
2023/07/26 02:48:01;;;;;;;1.73;1.30;;;;;;;16.02;71.03;96795.78;6230353;28;20689;-53
2023/07/26 02:51:05;;;;;;;1.50;1.17;;;;;;;15.90;72.44;96798.16;6231209;28;20215;-58
2023/07/26 02:54:09;;;;;;;7.27;2.13;;;;;;;15.98;75.23;96814.38;6215986;28;20682;-58
2023/07/26 02:57:14;;;;;;;3.67;1.10;;;;;;;15.93;72.88;96832.50;6227087;28;20235;-58
2023/07/26 03:00:17;;;;;;;1.60;1.17;;;;;;;15.95;72.46;96824.91;6213027;28;20210;-58
2023/07/26 03:03:20;;;;;;;0.90;0.87;;;;;;;15.87;73.95;96829.09;6231628;28;21662;-57
2023/07/26 03:06:24;;;;;;;2.83;1.70;;;;;;;15.81;74.84;96816.88;6229216;28;20297;-57
2023/07/26 03:09:29;;;;;;;5.63;1.33;;;;;;;15.66;76.62;96801.81;6211460;28;20238;-57
2023/07/26 03:12:34;;;;;;;1.30;0.90;;;;;;;15.69;76.30;96825.38;6214441;28;20325;-57
2023/07/26 03:15:39;;;;;;;3.33;1.70;;;;;;;15.62;77.18;96813.41;6232524;28;20239;-58
2023/07/26 03:18:44;;;;;;;3.27;1.90;;;;;;;15.44;76.46;96796.28;6212187;28;20232;-57
2023/07/26 03:21:48;;;;;;;2.87;1.63;;;;;;;15.51;77.54;96822.72;6225376;28;20224;-58
2023/07/26 03:24:51;;;;;;;4.43;2.33;;;;;;;15.41;78.49;96816.44;6229326;28;20714;-57
2023/07/26 03:27:55;;;;;;;2.27;1.40;;;;;;;15.48;79.58;96830.28;6229063;28;20319;-57
2023/07/26 03:30:57;;;;;;;1.97;1.27;;;;;;;15.36;82.18;96827.25;6221344;28;20235;-58
2023/07/26 03:33:59;;;;;;;2.13;1.40;;;;;;;15.36;81.81;96826.44;6233409;28;20338;-57
2023/07/26 03:37:02;;;;;;;1.30;1.10;;;;;;;15.31;82.50;96831.91;6226415;28;20250;-58
2023/07/26 03:40:05;;;;;;;1.97;1.50;;;;;;;15.16;81.81;96823.00;6227606;28;20321;-57
2023/07/26 03:43:07;;;;;;;1.27;1.07;;;;;;;15.06;82.66;96807.06;6227791;28;20740;-58
2023/07/26 03:46:10;;;;;;;2.10;1.00;;;;;;;15.10;84.00;96823.38;6227918;28;20322;-57
2023/07/26 03:49:12;;;;;;;1.83;1.03;;;;;;;15.05;86.52;96823.47;6224952;28;20251;-57
2023/07/26 03:52:14;;;;;;;0.97;0.97;;;;;;;15.02;82.52;96819.47;6228681;28;20235;-57
2023/07/26 03:55:17;;;;;;;1.20;1.10;;;;;;;14.95;83.62;96827.09;6227957;28;20242;-57
2023/07/26 03:58:19;;;;;;;2.07;1.30;;;;;;;14.88;85.08;96834.72;6229291;28;20385;-58
2023/07/26 04:01:21;;;;;;;1.67;1.30;;;;;;;14.68;86.50;96825.84;6227849;28;20779;-58
2023/07/26 04:04:24;;;;;;;3.30;1.47;;;;;;;14.81;87.46;96839.63;6226931;28;20235;-58
2023/07/26 04:07:26;;;;;;;1.40;1.30;;;;;;;14.76;89.70;96853.88;6210301;28;20273;-58
2023/07/26 04:10:29;;;;;;;1.83;1.43;;;;;;;14.66;89.52;96860.19;6231844;28;20243;-58
2023/07/26 04:13:31;;;;;;;1.90;1.43;;;;;;;14.73;86.52;96869.75;6228233;28;20246;-58
2023/07/26 04:16:34;;;;;;;1.87;1.30;;;;;;;14.53;88.19;96850.19;6228248;28;20236;-58
2023/07/26 04:19:37;;;;;;;3.13;1.27;;;;;;;14.35;90.33;96837.50;6227978;28;20606;-57
2023/07/26 04:22:39;;;;;;;2.67;1.50;;;;;;;14.39;91.58;96873.38;6210506;28;20334;-58
2023/07/26 04:25:42;;;;;;;1.83;1.50;;;;;;;14.34;91.29;96876.91;6230500;28;20239;-57
2023/07/26 04:28:44;;;;;;;1.50;1.40;;;;;;;14.37;91.03;96878.19;6232262;28;20713;-57
2023/07/26 04:31:47;;;;;;;1.47;1.37;;;;;;;14.31;93.19;96871.31;6215024;28;20239;-57
2023/07/26 04:34:50;;;;;;;2.00;1.60;;;;;;;14.25;93.58;96861.75;6232670;28;20239;-56
2023/07/26 04:37:53;;;;;;;3.30;1.20;;;;;;;14.22;94.21;96865.78;6232207;28;20243;-57
2023/07/26 04:40:55;;;;;;;1.30;1.20;;;;;;;14.37;91.96;96857.56;6232235;28;20346;-57
2023/07/26 04:43:57;;;;;;;1.83;1.20;;;;;;;14.28;92.39;96856.59;6230965;28;20242;-57
2023/07/26 04:46:59;;;;;;;1.90;1.40;;;;;;;14.26;93.99;96863.34;6234737;28;20232;-55
2023/07/26 04:50:02;;;;;;;2.27;1.10;;;;;;;14.15;92.87;96863.44;6233745;28;20223;-55
2023/07/26 04:53:04;;;;;;;1.23;1.13;;;;;;;14.07;93.44;96842.63;6231815;28;20717;-56
2023/07/26 04:56:07;;;;;;;2.03;1.20;;;;;;;14.16;91.84;96862.34;6232930;28;20236;-57
2023/07/26 04:59:09;;;;;;;1.40;1.30;;;;;;;14.16;92.48;96862.34;6232194;28;20235;-57
2023/07/26 05:02:13;;;;;;;1.30;1.20;;;;;;;13.88;93.49;96839.09;6235511;28;20732;-58
2023/07/26 05:05:16;;;;;;;1.70;1.60;;;;;;;14.03;93.02;96871.06;6232551;28;20636;-57
2023/07/26 05:08:20;;;;;;;1.60;1.40;;;;;;;13.98;93.14;96881.81;6232953;28;20222;-57
2023/07/26 05:11:23;;;;;;;1.30;1.20;;;;;;;13.91;94.35;96902.78;6229033;28;20231;-57
2023/07/26 05:14:25;;;;;;;1.97;1.20;;;;;;;14.03;91.97;96905.88;6233792;28;20278;-58
2023/07/26 05:17:29;;;;;;;1.57;1.20;;;;;;;13.93;93.32;96906.75;6229143;28;20717;-57
2023/07/26 05:20:36;;;;;;;1.03;0.83;;;;;;;13.96;90.93;96905.41;6238352;28;20780;-57
2023/07/26 05:23:41;;;;;;;0.93;0.83;;;;;;;14.00;90.06;96898.41;6231936;28;20286;-57
2023/07/26 05:26:45;;;;;;;2.00;1.23;;;;;;;13.99;90.85;96912.06;6234666;28;20239;-58
2023/07/26 05:29:48;;;;;;;2.53;0.90;;;;;;;14.01;89.77;96923.31;6231626;28;20270;-57
2023/07/26 05:32:50;;;;;;;1.73;1.00;;;;;;;13.87;90.53;96901.75;6231108;28;20259;-57
2023/07/26 05:35:52;;;;;;;0.83;0.83;;;;;;;14.01;89.09;96926.78;6230450;28;20701;-57
2023/07/26 05:38:55;;;;;;;3.00;1.00;;;;;;;13.81;90.18;96926.97;6229196;28;20236;-57
2023/07/26 05:41:57;;;;;;;1.00;0.83;;;;;;;13.89;89.75;96937.06;6228632;28;20370;-58
2023/07/26 05:44:59;;;;;;;2.13;0.90;;;;;;;13.68;90.52;96921.16;6229953;28;20875;-57
2023/07/26 05:48:02;;;;;;;0.77;0.77;;;;;;;13.83;91.29;96940.88;6230273;28;20743;-57
2023/07/26 05:51:07;;;;;;;0.90;0.90;;;;;;;13.74;91.17;96939.88;6230672;28;20216;-57
2023/07/26 05:54:09;;;;;;;1.30;1.10;;;;;;;13.75;91.48;96944.16;6230692;28;20231;-57
2023/07/26 05:57:11;;;;;;;1.57;0.97;;;;;;;13.71;92.30;96972.56;6229938;28;20614;-57
2023/07/26 06:00:14;;;;;;;1.07;1.07;;;;;;;13.83;90.83;96992.53;6229907;28;20690;-57
2023/07/26 06:03:18;;;;;;;1.10;1.00;;;;;;;13.89;88.90;96998.63;6212838;28;20220;-57
2023/07/26 06:06:20;;;;;;;1.00;1.00;;;;;;;13.64;90.48;96984.38;6203144;28;20234;-58
2023/07/26 06:09:25;;;;;;;1.10;1.00;;;;;;;13.92;87.84;97011.47;6230729;28;20367;-58
2023/07/26 06:12:28;;;;;;;1.17;1.00;;;;;;;13.79;88.93;97004.06;6229509;28;20307;-58
2023/07/26 06:15:30;;;;;;;1.20;1.10;;;;;;;13.75;89.23;97005.72;6230478;28;20314;-58
2023/07/26 06:18:32;;;;;;;1.17;1.07;;;;;;;13.73;89.89;97007.88;6217024;28;20668;-58
2023/07/26 06:21:35;;;;;;;1.33;1.23;;;;;;;13.90;87.95;97010.97;6229990;28;20234;-58
2023/07/26 06:24:37;;;;;;;1.50;1.40;;;;;;;13.91;87.83;97029.44;6224238;28;20308;-58
2023/07/26 06:27:40;;;;;;;1.73;1.50;;;;;;;13.81;87.23;97026.81;6212152;28;20227;-58
2023/07/26 06:30:46;;;;;;;1.63;1.53;;;;;;;13.81;87.68;97032.19;6229799;28;20593;-57
2023/07/26 06:33:48;;;;;;;1.70;1.50;;;;;;;13.88;86.74;97039.88;6230288;28;20717;-58
2023/07/26 06:36:50;;;;;;;1.83;1.43;;;;;;;13.94;85.71;97052.19;6228872;28;20385;-58
2023/07/26 06:39:53;;;;;;;2.77;1.60;;;;;;;13.88;87.86;97055.94;6227726;28;20646;-58
2023/07/26 06:42:55;;;;;;;1.50;1.37;;;;;;;13.85;87.71;97060.00;6229274;28;20228;-58
2023/07/26 06:45:57;;;;;;;1.40;1.30;;;;;;;13.77;87.28;97054.44;6225781;28;20236;-58
2023/07/26 06:49:01;;;;;;;1.90;1.47;;;;;;;13.92;86.10;97057.00;6230989;28;20239;-57
2023/07/26 06:52:04;;;;;;;1.43;1.30;;;;;;;13.71;85.59;97024.22;6234328;28;20228;-58
2023/07/26 06:55:07;;;;;;;1.00;1.00;;;;;;;13.99;87.48;97070.06;6213941;28;20250;-55
2023/07/26 06:58:09;;;;;;;3.77;2.80;;;;;;;13.96;85.92;97058.06;6230279;28;20705;-56
2023/07/26 07:01:20;;;;;;;1.53;1.20;;;;;;;14.05;86.28;97067.09;6228633;28;20743;-57
2023/07/26 07:04:22;;;;;;;1.87;0.93;;;;;;;14.15;84.99;97074.25;6225416;28;20235;-58
2023/07/26 07:07:25;;;;;;;1.20;1.10;;;;;;;14.19;84.87;97088.69;6227880;28;20284;-58
2023/07/26 07:10:27;;;;;;;1.77;1.37;;;;;;;14.20;85.73;97080.38;6228099;28;20262;-58
2023/07/26 07:13:29;;;;;;;1.30;1.20;;;;;;;14.16;83.59;97079.31;6224521;28;20236;-58
2023/07/26 07:16:32;;;;;;;2.50;1.57;;;;;;;14.11;84.18;97073.22;6228276;28;20298;-58
2023/07/26 07:19:37;;;;;;;1.40;1.30;;;;;;;14.31;81.92;97101.72;6204206;28;20228;-59
2023/07/26 07:22:45;;;;;;;1.70;1.60;;;;;;;14.29;82.00;97101.22;6204278;28;20702;-58
2023/07/26 07:25:55;;;;;;;1.70;1.60;;;;;;;14.23;80.92;97070.97;6210285;28;20231;-58
2023/07/26 07:29:00;;;;;;;2.60;1.60;;;;;;;14.44;81.42;97096.53;6208623;28;20368;-58
2023/07/26 07:32:03;;;;;;;2.27;1.60;;;;;;;14.46;80.17;97118.47;6228192;28;20247;-58
2023/07/26 07:35:22;;;;;;;1.70;1.60;;;;;;;14.59;79.34;97110.91;6222862;28;20347;-59
2023/07/26 07:38:24;;;;;;;2.00;1.70;;;;;;;14.59;79.77;97106.34;6226007;28;20271;-58
2023/07/26 07:41:27;;;;;;;1.90;1.70;;;;;;;14.54;79.19;97111.75;6223745;28;20235;-59
2023/07/26 07:44:30;;;;;;;2.13;1.77;;;;;;;14.62;80.04;97113.03;6227664;28;20769;-59
2023/07/26 07:47:32;;;;;;;2.97;1.80;;;;;;;14.66;78.85;97120.22;6226926;28;20297;-59
2023/07/26 07:50:35;;;;;;;3.00;1.60;;;;;;;14.65;79.32;97118.63;6223350;28;20227;-59
2023/07/26 07:53:37;;;;;;;2.13;1.93;;;;;;;14.41;77.86;97088.25;6228256;28;20776;-58
2023/07/26 07:56:39;;;;;;;3.37;2.30;;;;;;;14.59;79.64;97138.53;6228198;28;20234;-58
2023/07/26 07:59:42;;;;;;;2.00;1.90;;;;;;;14.64;77.95;97122.41;6227606;28;20336;-58
2023/07/26 08:02:44;;;;;;;2.87;2.10;;;;;;;14.74;77.35;97134.13;6227408;28;20369;-58
2023/07/26 08:05:46;;;;;;;3.73;1.90;;;;;;;14.75;77.53;97127.66;6230222;28;20365;-57
2023/07/26 08:08:49;;;;;;;3.87;2.30;;;;;;;14.79;77.27;97134.88;6225560;28;20304;-58
2023/07/26 08:11:51;;;;;;;2.43;2.23;;;;;;;14.91;74.75;97131.81;6227128;28;20235;-58
2023/07/26 08:14:53;;;;;;;3.97;2.53;;;;;;;15.01;74.72;97134.38;6228295;28;20459;-57
2023/07/26 08:17:56;;;;;;;3.60;2.20;;;;;;;14.95;76.00;97140.88;6227017;28;20320;-60
2023/07/26 08:20:58;;;;;;;4.40;2.00;;;;;;;14.99;76.91;97141.91;6226880;28;20232;-57
2023/07/26 08:24:00;;;;;;;2.70;2.00;;;;;;;15.12;75.14;97141.25;6228739;28;20324;-59
2023/07/26 08:27:06;;;;;;;2.67;2.17;;;;;;;15.15;75.22;97135.31;6209706;28;20215;-59
2023/07/26 08:30:09;;;;;;;4.10;2.40;;;;;;;15.34;74.62;97148.00;6220184;28;20212;-59
2023/07/26 08:33:12;;;;;;;4.90;2.30;;;;;;;15.30;75.65;97153.13;6209070;28;20235;-59
2023/07/26 08:36:20;;;;;;;3.07;1.90;;;;;;;15.34;75.35;97132.69;6226982;28;20257;-59
2023/07/26 08:39:23;;;;;;;2.80;2.20;;;;;;;15.27;74.79;97108.09;6211932;28;20565;-59
2023/07/26 08:42:37;;;;;;;1.97;1.70;;;;;;;15.58;73.70;97158.75;6223858;28;20591;-59
2023/07/26 08:45:42;;;;;;;3.37;2.47;;;;;;;15.60;73.71;97156.56;6228296;28;20240;-59
2023/07/26 08:48:45;;;;;;;4.40;2.30;;;;;;;15.63;72.35;97156.00;6225711;28;20227;-60
2023/07/26 08:51:48;;;;;;;2.73;2.43;;;;;;;15.58;72.21;97158.75;6217280;28;20239;-59
2023/07/26 08:54:52;;;;;;;4.93;2.47;;;;;;;15.90;71.77;97158.88;6226055;28;20239;-60
2023/07/26 08:57:55;;;;;;;5.63;2.47;;;;;;;15.97;70.97;97153.19;6226228;28;20315;-60
2023/07/26 09:00:59;;;;;;;4.33;2.20;;;;;;;15.97;71.12;97151.28;6224501;28;20329;-60
2023/07/26 09:04:02;;;;;;;2.57;2.20;;;;;;;16.03;71.63;97154.69;6223257;28;20239;-56
2023/07/26 09:07:06;;;;;;;3.53;2.40;;;;;;;15.97;69.45;97135.16;6202331;28;20364;-58
2023/07/26 09:10:09;;;;;;;2.20;2.00;;;;;;;16.18;70.48;97162.56;6213003;28;20212;-59
2023/07/26 09:13:14;;;;;;;2.47;2.27;;;;;;;16.36;70.28;97154.78;6207503;28;20224;-59
2023/07/26 09:16:19;;;;;;;3.27;2.30;;;;;;;16.43;66.95;97139.88;6202924;28;20362;-59
2023/07/26 09:19:37;;;;;;;4.73;2.47;;;;;;;16.49;67.06;97154.81;6195073;28;20235;-58
2023/07/26 09:22:41;;;;;;;3.30;2.13;;;;;;;16.42;68.21;97151.72;6228942;28;20731;-59
2023/07/26 09:25:45;;;;;;;3.73;1.87;;;;;;;16.48;66.96;97145.16;6229755;28;20658;-56
2023/07/26 09:28:52;;;;;;;2.87;2.43;;;;;;;16.74;68.44;97164.41;6231359;28;20243;-57
2023/07/26 09:31:55;;;;;;;4.73;1.97;;;;;;;16.88;66.04;97147.53;6231592;28;20230;-59
2023/07/26 09:34:59;;;;;;;2.53;2.27;;;;;;;17.02;64.20;97169.88;6211976;28;20243;-58
2023/07/26 09:38:11;;;;;;;3.40;2.00;;;;;;;16.71;64.85;97140.81;6227238;28;20235;-59
2023/07/26 09:41:22;;;;;;;2.70;1.90;;;;;;;16.83;65.00;97177.19;6229612;28;20395;-59
2023/07/26 09:44:25;;;;;;;3.60;2.17;;;;;;;16.67;65.88;97177.41;6227701;28;20231;-58
2023/07/26 09:47:36;;;;;;;3.77;2.10;;;;;;;16.74;64.93;97182.44;6232565;28;20223;-58
2023/07/26 09:50:51;;;;;;;4.17;1.93;;;;;;;16.64;64.93;97171.81;6229244;28;20347;-58
2023/07/26 09:53:59;;;;;;;2.83;2.10;;;;;;;16.65;64.37;97168.84;6230052;28;20224;-58
2023/07/26 09:57:15;;;;;;;3.80;2.60;;;;;;;16.64;64.60;97186.06;6228762;28;20684;-58
2023/07/26 10:00:21;;;;;;;3.37;1.87;;;;;;;16.67;61.66;97184.69;6229518;28;20231;-58
2023/07/26 10:03:24;;;;;;;3.50;2.17;;;;;;;16.71;62.02;97174.94;6230611;28;20315;-58
2023/07/26 10:06:32;;;;;;;3.33;1.97;;;;;;;16.58;62.92;97164.94;6229197;28;20693;-57
2023/07/26 10:09:43;;;;;;;6.33;2.90;;;;;;;16.57;62.93;97177.56;6229235;28;20236;-57
2023/07/26 10:12:46;;;;;;;5.00;1.80;;;;;;;16.69;60.63;97163.66;6226467;28;20238;-58
2023/07/26 10:16:05;;;;;;;4.40;1.93;;;;;;;16.87;60.14;97165.56;6229551;28;20231;-58
2023/07/26 10:19:11;;;;;;;2.87;1.57;;;;;;;17.01;61.18;97168.28;6225022;28;20232;-58
2023/07/26 10:22:28;;;;;;;6.80;4.67;;;;;;;17.09;63.33;97148.75;6228951;28;20326;-58
2023/07/26 10:25:43;;;;;;;12.07;8.23;;;;;;;17.31;61.24;97188.47;6234981;28;20313;-59
2023/07/26 10:28:46;;;;;;;4.20;2.73;;;;;;;17.22;59.63;97195.63;6235692;28;20239;-58
2023/07/26 10:32:03;;;;;;;5.07;1.90;;;;;;;17.12;60.32;97203.91;6234300;28;20232;-58
2023/07/26 10:35:10;;;;;;;2.10;1.90;;;;;;;16.86;62.43;97203.53;6232263;28;20599;-56
2023/07/26 10:38:15;;;;;;;4.17;2.10;;;;;;;16.73;65.93;97218.50;6230485;28;20219;-57
2023/07/26 10:41:29;;;;;;;4.60;2.83;;;;;;;16.49;66.88;97229.31;6229384;28;20228;-58
2023/07/26 10:44:42;;;;;;;2.50;2.30;;;;;;;15.94;70.20;97224.38;6227357;28;20264;-58
2023/07/26 10:47:50;;;;;;;6.43;2.90;;;;;;;15.91;71.30;97242.97;6240487;28;20238;-57
2023/07/26 10:50:57;;;;;;;5.00;2.40;;;;;;;15.89;73.22;97245.16;6223421;28;20232;-58
2023/07/26 10:54:00;;;;;;;3.17;2.80;;;;;;;16.04;73.72;97236.09;6228703;28;20227;-58
2023/07/26 10:57:13;;;;;;;3.77;2.90;;;;;;;15.94;74.33;97242.41;6223639;28;20592;-57
2023/07/26 11:00:22;;;;;;;5.13;4.63;;;;;;;16.02;75.18;97238.28;6211472;28;20201;-57
2023/07/26 11:03:25;;;;;;;7.23;5.53;;;;;;;16.05;77.78;97216.19;6225526;28;20224;-58
2023/07/26 11:06:50;;;;;;;2.67;2.47;;;;;;;16.27;76.60;97237.16;6212636;28;20897;-55
2023/07/26 11:10:16;;;;;;;3.13;2.57;;;;;;;16.29;76.03;97237.66;6228576;28;20236;-57
2023/07/26 11:13:26;;;;;;;3.07;2.40;;;;;;;16.24;74.70;97228.56;6228143;28;20236;-58
2023/07/26 11:16:31;;;;;;;13.43;10.20;;;;;;;16.32;75.53;97234.41;6208753;28;20570;-57
2023/07/26 11:19:45;;;;;;;3.50;2.60;;;;;;;16.42;76.54;97228.91;6227614;28;20612;-58
2023/07/26 11:22:48;;;;;;;5.23;3.03;;;;;;;16.57;77.01;97233.25;6228310;28;20609;-58
2023/07/26 11:25:53;;;;;;;2.20;2.00;;;;;;;16.72;77.04;97228.47;6228326;28;20717;-57
2023/07/26 11:28:59;;;;;;;10.03;7.40;;;;;;;16.84;75.56;97235.28;6228811;28;20234;-57
2023/07/26 11:32:03;;;;;;;4.20;3.47;;;;;;;17.03;74.35;97222.59;6226790;28;20243;-57
2023/07/26 11:35:06;;;;;;;2.23;2.03;;;;;;;17.13;71.88;97227.81;6218974;28;20228;-58
2023/07/26 11:38:14;;;;;;;2.80;2.17;;;;;;;17.24;68.82;97196.13;6226935;28;20240;-58
2023/07/26 11:41:30;;;;;;;2.13;1.93;;;;;;;17.19;70.56;97206.97;6212656;28;20246;-58
2023/07/26 11:44:32;;;;;;;3.17;1.80;;;;;;;17.31;69.28;97217.28;6227338;28;20227;-58
2023/07/26 11:47:36;;;;;;;9.70;6.73;;;;;;;17.16;70.20;97224.53;6227540;28;20644;-58
2023/07/26 11:50:39;;;;;;;2.73;2.20;;;;;;;17.19;69.45;97237.44;6226514;28;20616;-58
2023/07/26 11:53:42;;;;;;;1.77;1.40;;;;;;;17.06;70.09;97243.56;6227457;28;20232;-58
2023/07/26 11:56:50;;;;;;;3.00;1.73;;;;;;;17.06;68.33;97221.22;6230795;28;20239;-58
2023/07/26 12:00:00;;;;;;;2.87;1.67;;;;;;;17.26;68.20;97253.19;6230397;28;20239;-57
2023/07/26 12:03:13;;;;;;;1.60;1.50;;;;;;;17.16;69.68;97221.06;6232813;28;20238;-57
2023/07/26 12:06:15;;;;;;;2.67;1.93;;;;;;;17.43;69.40;97249.91;6227983;28;20219;-58
2023/07/26 12:09:19;;;;;;;2.73;1.80;;;;;;;17.12;69.68;97252.34;6228845;28;20228;-58
2023/07/26 12:12:22;;;;;;;2.23;1.70;;;;;;;16.94;69.86;97259.34;6226490;28;20224;-58
2023/07/26 12:15:26;;;;;;;1.67;1.57;;;;;;;16.95;70.76;97260.97;6210353;28;20362;-59
2023/07/26 12:18:28;;;;;;;9.47;7.40;;;;;;;17.01;73.28;97260.56;6225488;28;20610;-58
2023/07/26 12:21:31;;;;;;;3.10;2.50;;;;;;;17.10;73.54;97263.41;6227130;28;20240;-58
2023/07/26 12:24:53;;;;;;;9.70;8.60;;;;;;;17.19;73.64;97256.25;6213452;28;20331;-58
2023/07/26 12:27:56;;;;;;;2.63;1.77;;;;;;;17.35;74.07;97264.88;6225076;28;20236;-59
2023/07/26 12:30:58;;;;;;;2.50;1.57;;;;;;;17.38;71.09;97258.88;6226304;28;20240;-58
2023/07/26 12:34:04;;;;;;;2.83;1.97;;;;;;;17.46;70.14;97262.81;6226711;28;20243;-58
2023/07/26 12:37:07;;;;;;;3.00;2.70;;;;;;;17.31;70.54;97247.72;6226262;28;20224;-58
2023/07/26 12:40:13;;;;;;;3.53;1.90;;;;;;;17.08;68.88;97251.31;6203639;28;20232;-59
2023/07/26 12:43:27;;;;;;;18.07;14.63;;;;;;;16.77;71.32;97266.06;6229581;28;20263;-58
2023/07/26 12:46:29;;;;;;;4.57;2.80;;;;;;;16.59;73.75;97269.50;6227713;28;20239;-57
2023/07/26 12:49:42;;;;;;;4.50;3.10;;;;;;;16.44;72.99;97275.88;6225616;28;20256;-58
2023/07/26 12:52:45;;;;;;;3.47;2.50;;;;;;;16.30;75.18;97282.25;6209924;28;20234;-58
2023/07/26 12:55:53;;;;;;;2.70;1.80;;;;;;;16.07;76.46;97284.69;6230348;28;20234;-58
2023/07/26 12:58:56;;;;;;;1.90;1.50;;;;;;;15.71;77.55;97286.97;6228097;28;20235;-58
2023/07/26 13:02:09;;;;;;;2.83;2.10;;;;;;;15.45;82.56;97303.28;6231563;28;20235;-58
2023/07/26 13:05:13;;;;;;;2.23;2.00;;;;;;;15.23;83.47;97308.31;6227286;28;20231;-58
2023/07/26 13:08:19;;;;;;;5.17;4.67;;;;;;;15.09;83.49;97312.72;6230300;28;20230;-58
2023/07/26 13:11:25;;;;;;;2.33;2.13;;;;;;;15.06;86.61;97310.59;6213482;28;20310;-58
2023/07/26 13:14:28;;;;;;;3.13;2.10;;;;;;;15.02;85.00;97321.06;6232638;28;20342;-58
2023/07/26 13:17:32;;;;;;;2.00;1.83;;;;;;;14.96;85.67;97323.00;6230480;28;20577;-58
2023/07/26 13:20:37;;;;;;;2.50;1.90;;;;;;;14.99;85.97;97315.47;6232159;28;20231;-58
2023/07/26 13:23:41;;;;;;;3.63;2.20;;;;;;;14.87;84.42;97308.56;6233448;28;20262;-56
2023/07/26 13:26:43;;;;;;;2.80;2.10;;;;;;;14.84;84.94;97313.69;6231027;28;20232;-57
2023/07/26 13:29:48;;;;;;;3.53;2.77;;;;;;;14.64;86.89;97280.56;6227031;28;20235;-57
2023/07/26 13:32:52;;;;;;;2.67;2.20;;;;;;;14.36;87.18;97223.06;6229055;28;20318;-57
2023/07/26 13:35:54;;;;;;;3.53;2.10;;;;;;;14.94;87.34;97297.53;6231089;28;20371;-57
2023/07/26 13:38:57;;;;;;;32.57;25.00;;;;;;;15.10;87.84;97304.38;6225183;28;20231;-57
2023/07/26 13:41:59;;;;;;;8.03;6.03;;;;;;;15.23;88.40;97306.44;6230370;28;20243;-57
2023/07/26 13:45:02;;;;;;;3.00;2.70;;;;;;;15.28;85.31;97319.00;6231259;28;20384;-57
2023/07/26 13:48:05;;;;;;;3.10;1.43;;;;;;;15.26;80.50;97302.38;6229908;28;20569;-57
2023/07/26 13:51:07;;;;;;;7.40;6.67;;;;;;;15.31;82.54;97328.38;6231238;28;20219;-58
2023/07/26 13:54:12;;;;;;;2.80;2.60;;;;;;;15.30;85.02;97329.47;6236773;28;20215;-58
2023/07/26 13:57:15;;;;;;;1.60;1.50;;;;;;;15.18;85.02;97313.72;6208414;28;20568;-57
2023/07/26 14:00:22;;;;;;;2.87;2.20;;;;;;;15.36;84.63;97339.06;6228848;28;20232;-58
2023/07/26 14:03:26;;;;;;;2.70;1.50;;;;;;;15.47;80.39;97340.59;6229151;28;20239;-58
2023/07/26 14:06:30;;;;;;;2.60;2.40;;;;;;;15.57;80.05;97345.09;6230510;28;20542;-58
2023/07/26 14:09:33;;;;;;;3.50;3.13;;;;;;;15.60;79.15;97331.09;6228776;28;20227;-58
2023/07/26 14:12:35;;;;;;;5.17;3.63;;;;;;;15.85;80.43;97341.59;6229063;28;20370;-57
2023/07/26 14:15:38;;;;;;;4.13;3.67;;;;;;;15.87;78.47;97335.97;6228173;28;20640;-57
2023/07/26 14:18:42;;;;;;;1.97;1.77;;;;;;;15.91;79.71;97343.19;6229266;28;20228;-57
2023/07/26 14:21:45;;;;;;;9.97;8.63;;;;;;;15.85;78.03;97346.97;6227829;28;20373;-58
2023/07/26 14:24:48;;;;;;;2.40;2.17;;;;;;;15.79;79.26;97366.94;6229053;28;20231;-58
2023/07/26 14:27:52;;;;;;;1.53;1.43;;;;;;;15.37;76.76;97340.66;6230267;28;20709;-60
2023/07/26 14:30:55;;;;;;;1.27;1.17;;;;;;;15.30;79.38;97370.50;6217544;28;20242;-58